sensor_id;sensor_type;location;lat;lon;timestamp;temperature;humidity
18252;DHT22;26917;52.328;20.878;2023-03-23T00:02:08;8.30;99.90
18252;DHT22;26917;52.328;20.878;2023-03-23T00:04:35;8.30;99.90
18252;DHT22;26917;52.328;20.878;2023-03-23T00:07:03;8.30;99.90
18252;DHT22;26917;52.328;20.878;2023-03-23T00:09:30;8.30;99.90
18252;DHT22;26917;52.328;20.878;2023-03-23T00:12:01;8.30;99.90
18252;DHT22;26917;52.328;20.878;2023-03-23T00:14:31;8.30;99.90
18252;DHT22;26917;52.328;20.878;2023-03-23T00:17:07;8.20;99.90
18252;DHT22;26917;52.328;20.878;2023-03-23T00:19:37;8.20;99.90
18252;DHT22;26917;52.328;20.878;2023-03-23T00:22:12;8.20;99.90
18252;DHT22;26917;52.328;20.878;2023-03-23T00:24:40;8.20;99.90
18252;DHT22;26917;52.328;20.878;2023-03-23T00:27:09;8.20;99.90
18252;DHT22;26917;52.328;20.878;2023-03-23T00:29:41;8.20;99.90
18252;DHT22;26917;52.328;20.878;2023-03-23T00:32:12;8.20;99.90
18252;DHT22;26917;52.328;20.878;2023-03-23T00:34:40;8.20;99.90
18252;DHT22;26917;52.328;20.878;2023-03-23T00:37:09;8.20;99.90
18252;DHT22;26917;52.328;20.878;2023-03-23T00:39:38;8.30;99.90
18252;DHT22;26917;52.328;20.878;2023-03-23T00:42:14;8.30;99.90
18252;DHT22;26917;52.328;20.878;2023-03-23T00:44:42;8.30;99.90
18252;DHT22;26917;52.328;20.878;2023-03-23T00:47:11;8.30;99.90
18252;DHT22;26917;52.328;20.878;2023-03-23T00:49:38;8.30;99.90
18252;DHT22;26917;52.328;20.878;2023-03-23T00:52:07;8.30;99.90
18252;DHT22;26917;52.328;20.878;2023-03-23T00:54:34;8.30;99.90
18252;DHT22;26917;52.328;20.878;2023-03-23T00:57:04;8.40;99.90
18252;DHT22;26917;52.328;20.878;2023-03-23T00:59:41;8.40;99.90
18252;DHT22;26917;52.328;20.878;2023-03-23T01:02:09;8.40;99.90
18252;DHT22;26917;52.328;20.878;2023-03-23T01:04:38;8.50;99.90
18252;DHT22;26917;52.328;20.878;2023-03-23T01:07:05;8.50;99.90
18252;DHT22;26917;52.328;20.878;2023-03-23T01:09:34;8.50;99.90
18252;DHT22;26917;52.328;20.878;2023-03-23T01:12:01;8.60;99.90
18252;DHT22;26917;52.328;20.878;2023-03-23T01:14:33;8.60;99.90
18252;DHT22;26917;52.328;20.878;2023-03-23T01:17:00;8.70;99.90
18252;DHT22;26917;52.328;20.878;2023-03-23T01:19:28;8.80;99.90
18252;DHT22;26917;52.328;20.878;2023-03-23T01:21:55;8.80;99.90
18252;DHT22;26917;52.328;20.878;2023-03-23T01:24:23;8.90;99.90
18252;DHT22;26917;52.328;20.878;2023-03-23T01:26:50;8.90;99.90
18252;DHT22;26917;52.328;20.878;2023-03-23T01:29:17;8.90;99.90
18252;DHT22;26917;52.328;20.878;2023-03-23T01:31:46;8.90;99.90
18252;DHT22;26917;52.328;20.878;2023-03-23T01:34:13;9.00;99.90
18252;DHT22;26917;52.328;20.878;2023-03-23T01:36:40;9.00;99.90
18252;DHT22;26917;52.328;20.878;2023-03-23T01:39:08;9.00;99.90
18252;DHT22;26917;52.328;20.878;2023-03-23T01:41:35;8.90;99.90
18252;DHT22;26917;52.328;20.878;2023-03-23T01:47:30;8.90;99.90
18252;DHT22;26917;52.328;20.878;2023-03-23T01:49:57;8.90;99.90
18252;DHT22;26917;52.328;20.878;2023-03-23T01:52:27;8.90;99.90
18252;DHT22;26917;52.328;20.878;2023-03-23T01:55:01;8.90;99.90
18252;DHT22;26917;52.328;20.878;2023-03-23T01:57:29;8.90;99.90
18252;DHT22;26917;52.328;20.878;2023-03-23T02:00:02;8.80;99.90
18252;DHT22;26917;52.328;20.878;2023-03-23T02:02:42;8.90;99.90
18252;DHT22;26917;52.328;20.878;2023-03-23T02:05:14;8.80;99.90
18252;DHT22;26917;52.328;20.878;2023-03-23T02:07:44;8.90;99.90
18252;DHT22;26917;52.328;20.878;2023-03-23T02:10:12;8.60;99.90
18252;DHT22;26917;52.328;20.878;2023-03-23T02:12:39;8.90;99.90
18252;DHT22;26917;52.328;20.878;2023-03-23T02:15:08;8.50;99.90
18252;DHT22;26917;52.328;20.878;2023-03-23T02:17:48;9.00;99.90
18252;DHT22;26917;52.328;20.878;2023-03-23T02:20:38;9.00;99.90
18252;DHT22;26917;52.328;20.878;2023-03-23T02:23:49;9.00;99.90
18252;DHT22;26917;52.328;20.878;2023-03-23T02:26:27;9.00;99.90
18252;DHT22;26917;52.328;20.878;2023-03-23T02:29:21;9.00;99.90
18252;DHT22;26917;52.328;20.878;2023-03-23T02:32:10;9.00;99.90
18252;DHT22;26917;52.328;20.878;2023-03-23T02:34:42;9.00;99.90
18252;DHT22;26917;52.328;20.878;2023-03-23T02:37:16;9.00;99.90
18252;DHT22;26917;52.328;20.878;2023-03-23T02:39:48;9.00;99.90
18252;DHT22;26917;52.328;20.878;2023-03-23T02:42:19;9.00;99.90
18252;DHT22;26917;52.328;20.878;2023-03-23T02:44:49;9.00;99.90
18252;DHT22;26917;52.328;20.878;2023-03-23T02:47:21;9.10;99.90
18252;DHT22;26917;52.328;20.878;2023-03-23T02:49:53;9.10;99.90
18252;DHT22;26917;52.328;20.878;2023-03-23T02:52:24;9.10;99.90
18252;DHT22;26917;52.328;20.878;2023-03-23T02:54:54;9.10;99.90
18252;DHT22;26917;52.328;20.878;2023-03-23T02:57:22;9.00;99.90
18252;DHT22;26917;52.328;20.878;2023-03-23T02:59:52;9.00;99.90
18252;DHT22;26917;52.328;20.878;2023-03-23T03:02:21;9.00;99.90
18252;DHT22;26917;52.328;20.878;2023-03-23T03:04:58;9.00;99.90
18252;DHT22;26917;52.328;20.878;2023-03-23T03:07:49;9.00;99.90
18252;DHT22;26917;52.328;20.878;2023-03-23T03:10:23;9.00;99.90
18252;DHT22;26917;52.328;20.878;2023-03-23T03:12:57;9.00;99.90
18252;DHT22;26917;52.328;20.878;2023-03-23T03:15:33;9.00;99.90
18252;DHT22;26917;52.328;20.878;2023-03-23T03:18:07;8.90;99.90
18252;DHT22;26917;52.328;20.878;2023-03-23T03:20:43;8.90;99.90
18252;DHT22;26917;52.328;20.878;2023-03-23T03:23:13;8.80;99.90
18252;DHT22;26917;52.328;20.878;2023-03-23T03:25:44;8.80;99.90
18252;DHT22;26917;52.328;20.878;2023-03-23T03:28:19;8.80;99.90
18252;DHT22;26917;52.328;20.878;2023-03-23T03:30:53;8.80;99.90
18252;DHT22;26917;52.328;20.878;2023-03-23T03:33:22;8.80;99.90
18252;DHT22;26917;52.328;20.878;2023-03-23T03:35:55;8.80;99.90
18252;DHT22;26917;52.328;20.878;2023-03-23T03:38:24;8.80;99.90
18252;DHT22;26917;52.328;20.878;2023-03-23T03:40:55;8.80;99.90
18252;DHT22;26917;52.328;20.878;2023-03-23T03:43:23;8.70;99.90
18252;DHT22;26917;52.328;20.878;2023-03-23T03:45:51;8.60;99.90
18252;DHT22;26917;52.328;20.878;2023-03-23T03:48:19;8.60;99.90
18252;DHT22;26917;52.328;20.878;2023-03-23T03:50:47;8.60;99.90
18252;DHT22;26917;52.328;20.878;2023-03-23T03:53:16;8.50;99.90
18252;DHT22;26917;52.328;20.878;2023-03-23T03:55:44;8.50;99.90
18252;DHT22;26917;52.328;20.878;2023-03-23T03:58:15;8.50;99.90
18252;DHT22;26917;52.328;20.878;2023-03-23T04:01:06;8.40;99.90
18252;DHT22;26917;52.328;20.878;2023-03-23T04:03:38;8.40;99.90
18252;DHT22;26917;52.328;20.878;2023-03-23T04:06:21;8.40;99.90
18252;DHT22;26917;52.328;20.878;2023-03-23T04:08:51;8.40;99.90
18252;DHT22;26917;52.328;20.878;2023-03-23T04:11:19;8.40;99.90
18252;DHT22;26917;52.328;20.878;2023-03-23T04:13:46;8.40;99.90
18252;DHT22;26917;52.328;20.878;2023-03-23T04:16:25;8.40;99.90
18252;DHT22;26917;52.328;20.878;2023-03-23T04:18:57;8.40;99.90
18252;DHT22;26917;52.328;20.878;2023-03-23T04:21:26;8.40;99.90
18252;DHT22;26917;52.328;20.878;2023-03-23T04:23:56;8.40;99.90
18252;DHT22;26917;52.328;20.878;2023-03-23T04:26:26;8.30;99.90
18252;DHT22;26917;52.328;20.878;2023-03-23T04:28:57;8.30;99.90
18252;DHT22;26917;52.328;20.878;2023-03-23T04:31:25;8.30;99.90
18252;DHT22;26917;52.328;20.878;2023-03-23T04:34:01;8.30;99.90
18252;DHT22;26917;52.328;20.878;2023-03-23T04:36:36;8.30;99.90
18252;DHT22;26917;52.328;20.878;2023-03-23T04:39:13;8.20;99.90
18252;DHT22;26917;52.328;20.878;2023-03-23T04:41:42;8.10;99.90
18252;DHT22;26917;52.328;20.878;2023-03-23T04:44:30;8.10;99.90
18252;DHT22;26917;52.328;20.878;2023-03-23T04:47:04;8.10;99.90
18252;DHT22;26917;52.328;20.878;2023-03-23T04:49:39;8.10;99.90
18252;DHT22;26917;52.328;20.878;2023-03-23T04:52:21;8.10;99.90
18252;DHT22;26917;52.328;20.878;2023-03-23T04:54:56;8.10;99.90
18252;DHT22;26917;52.328;20.878;2023-03-23T04:57:24;8.20;99.90
18252;DHT22;26917;52.328;20.878;2023-03-23T05:00:18;8.20;99.90
18252;DHT22;26917;52.328;20.878;2023-03-23T05:02:53;8.30;99.90
18252;DHT22;26917;52.328;20.878;2023-03-23T05:05:24;8.30;99.90
18252;DHT22;26917;52.328;20.878;2023-03-23T05:07:55;8.40;99.90
18252;DHT22;26917;52.328;20.878;2023-03-23T05:10:27;8.40;99.90
18252;DHT22;26917;52.328;20.878;2023-03-23T05:13:01;8.50;99.90
18252;DHT22;26917;52.328;20.878;2023-03-23T05:15:29;8.50;99.90
18252;DHT22;26917;52.328;20.878;2023-03-23T05:17:57;8.60;99.90
18252;DHT22;26917;52.328;20.878;2023-03-23T05:20:24;8.70;99.90
18252;DHT22;26917;52.328;20.878;2023-03-23T05:22:58;8.70;99.90
18252;DHT22;26917;52.328;20.878;2023-03-23T05:25:34;8.80;99.90
18252;DHT22;26917;52.328;20.878;2023-03-23T05:28:10;8.80;99.90
18252;DHT22;26917;52.328;20.878;2023-03-23T05:30:51;8.90;99.90
18252;DHT22;26917;52.328;20.878;2023-03-23T05:33:20;9.00;99.90
18252;DHT22;26917;52.328;20.878;2023-03-23T05:35:55;9.00;99.90
18252;DHT22;26917;52.328;20.878;2023-03-23T05:38:27;9.00;99.90
18252;DHT22;26917;52.328;20.878;2023-03-23T05:40:59;9.10;99.90
18252;DHT22;26917;52.328;20.878;2023-03-23T05:43:31;9.20;99.90
18252;DHT22;26917;52.328;20.878;2023-03-23T05:46:28;9.30;99.90
18252;DHT22;26917;52.328;20.878;2023-03-23T05:48:58;9.40;99.90
18252;DHT22;26917;52.328;20.878;2023-03-23T05:51:32;9.50;99.90
18252;DHT22;26917;52.328;20.878;2023-03-23T05:54:01;9.50;99.90
18252;DHT22;26917;52.328;20.878;2023-03-23T05:56:31;9.60;99.90
18252;DHT22;26917;52.328;20.878;2023-03-23T05:59:09;9.70;99.90
18252;DHT22;26917;52.328;20.878;2023-03-23T06:01:38;9.70;99.90
18252;DHT22;26917;52.328;20.878;2023-03-23T06:04:06;9.80;99.90
18252;DHT22;26917;52.328;20.878;2023-03-23T06:06:50;9.80;99.90
18252;DHT22;26917;52.328;20.878;2023-03-23T06:09:18;9.90;99.90
18252;DHT22;26917;52.328;20.878;2023-03-23T06:12:14;10.00;99.90
18252;DHT22;26917;52.328;20.878;2023-03-23T06:15:08;10.10;99.90
18252;DHT22;26917;52.328;20.878;2023-03-23T06:18:00;10.10;99.90
18252;DHT22;26917;52.328;20.878;2023-03-23T06:20:36;10.20;99.90
18252;DHT22;26917;52.328;20.878;2023-03-23T06:23:17;10.20;99.90
18252;DHT22;26917;52.328;20.878;2023-03-23T06:25:46;10.20;99.90
18252;DHT22;26917;52.328;20.878;2023-03-23T06:28:14;10.20;99.90
18252;DHT22;26917;52.328;20.878;2023-03-23T06:30:46;10.30;99.90
18252;DHT22;26917;52.328;20.878;2023-03-23T06:33:14;10.30;99.90
18252;DHT22;26917;52.328;20.878;2023-03-23T06:36:15;10.40;99.90
18252;DHT22;26917;52.328;20.878;2023-03-23T06:39:02;10.40;99.90
18252;DHT22;26917;52.328;20.878;2023-03-23T06:41:44;10.50;99.90
18252;DHT22;26917;52.328;20.878;2023-03-23T06:44:13;10.50;99.90
18252;DHT22;26917;52.328;20.878;2023-03-23T06:46:40;10.50;99.90
18252;DHT22;26917;52.328;20.878;2023-03-23T06:49:16;10.50;99.90
18252;DHT22;26917;52.328;20.878;2023-03-23T06:52:00;10.70;99.90
18252;DHT22;26917;52.328;20.878;2023-03-23T06:54:30;10.90;99.90
18252;DHT22;26917;52.328;20.878;2023-03-23T06:57:00;11.20;99.90
18252;DHT22;26917;52.328;20.878;2023-03-23T06:59:29;11.50;99.90
18252;DHT22;26917;52.328;20.878;2023-03-23T07:01:57;11.90;99.90
18252;DHT22;26917;52.328;20.878;2023-03-23T07:04:24;13.00;99.90
18252;DHT22;26917;52.328;20.878;2023-03-23T07:07:00;12.60;99.90
18252;DHT22;26917;52.328;20.878;2023-03-23T07:09:30;12.70;99.90
18252;DHT22;26917;52.328;20.878;2023-03-23T07:11:58;12.80;99.90
18252;DHT22;26917;52.328;20.878;2023-03-23T07:14:34;12.70;99.90
18252;DHT22;26917;52.328;20.878;2023-03-23T07:17:02;12.70;99.90
18252;DHT22;26917;52.328;20.878;2023-03-23T07:19:35;12.60;99.90
18252;DHT22;26917;52.328;20.878;2023-03-23T07:22:04;12.60;99.90
18252;DHT22;26917;52.328;20.878;2023-03-23T07:24:33;12.60;99.90
18252;DHT22;26917;52.328;20.878;2023-03-23T07:27:16;12.60;99.90
18252;DHT22;26917;52.328;20.878;2023-03-23T07:29:45;12.70;99.90
18252;DHT22;26917;52.328;20.878;2023-03-23T07:32:20;12.80;99.90
18252;DHT22;26917;52.328;20.878;2023-03-23T07:34:47;13.00;99.90
18252;DHT22;26917;52.328;20.878;2023-03-23T07:37:24;13.10;99.90
18252;DHT22;26917;52.328;20.878;2023-03-23T07:39:51;13.30;99.90
18252;DHT22;26917;52.328;20.878;2023-03-23T07:42:19;13.40;99.90
18252;DHT22;26917;52.328;20.878;2023-03-23T07:44:52;13.50;99.90
18252;DHT22;26917;52.328;20.878;2023-03-23T07:47:19;13.50;99.90
18252;DHT22;26917;52.328;20.878;2023-03-23T07:49:48;13.50;99.90
18252;DHT22;26917;52.328;20.878;2023-03-23T07:52:22;13.50;99.90
18252;DHT22;26917;52.328;20.878;2023-03-23T07:54:51;13.50;99.90
18252;DHT22;26917;52.328;20.878;2023-03-23T07:57:36;13.60;99.90
18252;DHT22;26917;52.328;20.878;2023-03-23T08:00:08;13.80;99.90
18252;DHT22;26917;52.328;20.878;2023-03-23T08:02:41;14.20;99.90
18252;DHT22;26917;52.328;20.878;2023-03-23T08:05:25;14.70;99.90
18252;DHT22;26917;52.328;20.878;2023-03-23T08:08:16;15.10;99.20
18252;DHT22;26917;52.328;20.878;2023-03-23T08:11:03;15.30;97.90
18252;DHT22;26917;52.328;20.878;2023-03-23T08:13:37;15.40;97.10
18252;DHT22;26917;52.328;20.878;2023-03-23T08:16:26;15.40;97.30
18252;DHT22;26917;52.328;20.878;2023-03-23T08:19:29;15.40;97.10
18252;DHT22;26917;52.328;20.878;2023-03-23T08:22:20;15.30;96.90
18252;DHT22;26917;52.328;20.878;2023-03-23T08:25:11;15.30;96.80
18252;DHT22;26917;52.328;20.878;2023-03-23T08:28:02;15.30;96.80
18252;DHT22;26917;52.328;20.878;2023-03-23T08:30:56;15.20;96.60
18252;DHT22;26917;52.328;20.878;2023-03-23T08:33:45;15.20;96.90
18252;DHT22;26917;52.328;20.878;2023-03-23T08:36:39;15.20;96.80
18252;DHT22;26917;52.328;20.878;2023-03-23T08:39:34;15.40;97.10
18252;DHT22;26917;52.328;20.878;2023-03-23T08:42:26;15.60;96.40
18252;DHT22;26917;52.328;20.878;2023-03-23T08:45:06;15.70;96.00
18252;DHT22;26917;52.328;20.878;2023-03-23T08:47:53;15.80;95.60
18252;DHT22;26917;52.328;20.878;2023-03-23T08:50:41;15.80;95.50
18252;DHT22;26917;52.328;20.878;2023-03-23T08:53:21;15.90;95.70
18252;DHT22;26917;52.328;20.878;2023-03-23T08:56:20;16.00;95.50
18252;DHT22;26917;52.328;20.878;2023-03-23T08:59:15;16.00;95.20
18252;DHT22;26917;52.328;20.878;2023-03-23T09:02:15;16.00;94.80
18252;DHT22;26917;52.328;20.878;2023-03-23T09:04:50;15.70;94.70
18252;DHT22;26917;52.328;20.878;2023-03-23T09:07:26;15.70;95.00
18252;DHT22;26917;52.328;20.878;2023-03-23T09:09:54;15.70;95.30
18252;DHT22;26917;52.328;20.878;2023-03-23T09:12:21;15.60;95.00
18252;DHT22;26917;52.328;20.878;2023-03-23T09:14:53;15.60;95.10
18252;DHT22;26917;52.328;20.878;2023-03-23T09:17:21;15.70;95.20
18252;DHT22;26917;52.328;20.878;2023-03-23T09:19:48;15.80;95.40
18252;DHT22;26917;52.328;20.878;2023-03-23T09:22:16;15.90;95.10
18252;DHT22;26917;52.328;20.878;2023-03-23T09:24:47;16.00;95.00
18252;DHT22;26917;52.328;20.878;2023-03-23T09:27:14;16.00;94.50
18252;DHT22;26917;52.328;20.878;2023-03-23T09:29:42;16.00;94.50
18252;DHT22;26917;52.328;20.878;2023-03-23T09:32:12;16.00;94.10
18252;DHT22;26917;52.328;20.878;2023-03-23T09:34:40;16.00;94.30
18252;DHT22;26917;52.328;20.878;2023-03-23T09:37:07;16.10;94.60
18252;DHT22;26917;52.328;20.878;2023-03-23T09:39:35;16.20;94.30
18252;DHT22;26917;52.328;20.878;2023-03-23T09:42:15;16.40;94.80
18252;DHT22;26917;52.328;20.878;2023-03-23T09:44:58;16.50;94.40
18252;DHT22;26917;52.328;20.878;2023-03-23T09:47:34;16.80;94.40
18252;DHT22;26917;52.328;20.878;2023-03-23T09:50:10;16.90;93.40
18252;DHT22;26917;52.328;20.878;2023-03-23T09:52:42;17.00;93.30
18252;DHT22;26917;52.328;20.878;2023-03-23T09:55:13;17.20;92.70
18252;DHT22;26917;52.328;20.878;2023-03-23T09:57:47;17.20;92.00
18252;DHT22;26917;52.328;20.878;2023-03-23T10:00:18;17.20;91.70
18252;DHT22;26917;52.328;20.878;2023-03-23T10:02:51;17.20;91.50
18252;DHT22;26917;52.328;20.878;2023-03-23T10:05:29;17.10;91.30
18252;DHT22;26917;52.328;20.878;2023-03-23T10:08:08;17.20;91.20
18252;DHT22;26917;52.328;20.878;2023-03-23T10:10:45;17.20;91.20
18252;DHT22;26917;52.328;20.878;2023-03-23T10:13:23;17.50;91.10
18252;DHT22;26917;52.328;20.878;2023-03-23T10:15:52;17.30;91.60
18252;DHT22;26917;52.328;20.878;2023-03-23T10:18:25;17.70;91.70
18252;DHT22;26917;52.328;20.878;2023-03-23T10:20:56;17.40;90.20
18252;DHT22;26917;52.328;20.878;2023-03-23T10:23:43;17.60;89.40
18252;DHT22;26917;52.328;20.878;2023-03-23T10:26:19;17.90;87.60
18252;DHT22;26917;52.328;20.878;2023-03-23T10:28:51;17.70;85.80
18252;DHT22;26917;52.328;20.878;2023-03-23T10:31:22;18.30;87.50
18252;DHT22;26917;52.328;20.878;2023-03-23T10:33:53;18.50;86.70
18252;DHT22;26917;52.328;20.878;2023-03-23T10:36:24;18.50;86.60
18252;DHT22;26917;52.328;20.878;2023-03-23T10:38:57;18.60;85.30
18252;DHT22;26917;52.328;20.878;2023-03-23T10:41:26;19.00;85.30
18252;DHT22;26917;52.328;20.878;2023-03-23T10:43:56;19.10;81.30
18252;DHT22;26917;52.328;20.878;2023-03-23T10:46:32;19.00;80.90
18252;DHT22;26917;52.328;20.878;2023-03-23T10:49:09;19.30;81.30
18252;DHT22;26917;52.328;20.878;2023-03-23T10:51:42;19.30;79.00
18252;DHT22;26917;52.328;20.878;2023-03-23T10:54:10;19.30;78.70
18252;DHT22;26917;52.328;20.878;2023-03-23T10:56:39;19.00;80.40
18252;DHT22;26917;52.328;20.878;2023-03-23T10:59:25;18.90;81.20
18252;DHT22;26917;52.328;20.878;2023-03-23T11:01:55;18.90;82.30
18252;DHT22;26917;52.328;20.878;2023-03-23T11:04:23;18.90;82.10
18252;DHT22;26917;52.328;20.878;2023-03-23T11:06:53;19.10;82.30
18252;DHT22;26917;52.328;20.878;2023-03-23T11:09:34;19.20;81.50
18252;DHT22;26917;52.328;20.878;2023-03-23T11:12:03;19.30;82.00
18252;DHT22;26917;52.328;20.878;2023-03-23T11:14:33;19.20;79.60
18252;DHT22;26917;52.328;20.878;2023-03-23T11:17:19;19.20;79.60
18252;DHT22;26917;52.328;20.878;2023-03-23T11:19:46;19.20;80.60
18252;DHT22;26917;52.328;20.878;2023-03-23T11:22:19;19.20;81.40
18252;DHT22;26917;52.328;20.878;2023-03-23T11:24:49;19.60;81.50
18252;DHT22;26917;52.328;20.878;2023-03-23T11:27:19;19.90;80.00
18252;DHT22;26917;52.328;20.878;2023-03-23T11:29:52;20.00;78.00
18252;DHT22;26917;52.328;20.878;2023-03-23T11:32:23;20.10;78.00
18252;DHT22;26917;52.328;20.878;2023-03-23T11:34:54;20.00;77.40
18252;DHT22;26917;52.328;20.878;2023-03-23T11:37:29;19.90;77.10
18252;DHT22;26917;52.328;20.878;2023-03-23T11:39:59;19.60;77.90
18252;DHT22;26917;52.328;20.878;2023-03-23T11:42:35;19.60;79.20
18252;DHT22;26917;52.328;20.878;2023-03-23T11:45:17;19.60;79.00
18252;DHT22;26917;52.328;20.878;2023-03-23T11:47:53;19.60;79.10
18252;DHT22;26917;52.328;20.878;2023-03-23T11:50:24;19.60;78.10
18252;DHT22;26917;52.328;20.878;2023-03-23T11:53:11;19.60;78.80
18252;DHT22;26917;52.328;20.878;2023-03-23T11:55:53;19.70;78.90
18252;DHT22;26917;52.328;20.878;2023-03-23T11:58:25;19.80;77.70
18252;DHT22;26917;52.328;20.878;2023-03-23T12:01:05;19.90;76.40
18252;DHT22;26917;52.328;20.878;2023-03-23T12:03:56;19.90;76.50
18252;DHT22;26917;52.328;20.878;2023-03-23T12:06:33;20.00;76.60
18252;DHT22;26917;52.328;20.878;2023-03-23T12:09:09;20.00;76.00
18252;DHT22;26917;52.328;20.878;2023-03-23T12:11:45;20.20;78.40
18252;DHT22;26917;52.328;20.878;2023-03-23T12:14:20;20.20;74.40
18252;DHT22;26917;52.328;20.878;2023-03-23T12:17:05;20.10;74.90
18252;DHT22;26917;52.328;20.878;2023-03-23T12:19:48;19.90;75.20
18252;DHT22;26917;52.328;20.878;2023-03-23T12:22:36;19.70;75.80
18252;DHT22;26917;52.328;20.878;2023-03-23T12:25:37;19.70;76.10
18252;DHT22;26917;52.328;20.878;2023-03-23T12:28:14;19.80;75.80
18252;DHT22;26917;52.328;20.878;2023-03-23T12:30:48;19.90;75.40
18252;DHT22;26917;52.328;20.878;2023-03-23T12:33:29;20.10;76.20
18252;DHT22;26917;52.328;20.878;2023-03-23T12:36:26;20.00;74.70
18252;DHT22;26917;52.328;20.878;2023-03-23T12:42:59;20.00;75.30
18252;DHT22;26917;52.328;20.878;2023-03-23T12:45:50;20.00;76.60
18252;DHT22;26917;52.328;20.878;2023-03-23T12:48:24;20.10;74.90
18252;DHT22;26917;52.328;20.878;2023-03-23T12:51:06;20.30;75.80
18252;DHT22;26917;52.328;20.878;2023-03-23T12:53:43;20.30;75.30
18252;DHT22;26917;52.328;20.878;2023-03-23T12:56:17;20.50;76.00
18252;DHT22;26917;52.328;20.878;2023-03-23T12:58:52;20.70;76.40
18252;DHT22;26917;52.328;20.878;2023-03-23T13:01:26;20.70;75.00
18252;DHT22;26917;52.328;20.878;2023-03-23T13:03:58;20.80;75.30
18252;DHT22;26917;52.328;20.878;2023-03-23T13:06:35;20.90;75.10
18252;DHT22;26917;52.328;20.878;2023-03-23T13:09:05;21.00;74.60
18252;DHT22;26917;52.328;20.878;2023-03-23T13:11:36;21.00;75.20
18252;DHT22;26917;52.328;20.878;2023-03-23T13:14:18;20.80;75.70
18252;DHT22;26917;52.328;20.878;2023-03-23T13:17:03;20.60;76.20
18252;DHT22;26917;52.328;20.878;2023-03-23T13:19:44;20.40;76.30
18252;DHT22;26917;52.328;20.878;2023-03-23T13:22:16;20.20;75.50
18252;DHT22;26917;52.328;20.878;2023-03-23T13:24:50;19.90;75.60
18252;DHT22;26917;52.328;20.878;2023-03-23T13:27:23;19.60;75.40
18252;DHT22;26917;52.328;20.878;2023-03-23T13:29:51;19.30;75.40
18252;DHT22;26917;52.328;20.878;2023-03-23T13:32:19;19.10;76.20
18252;DHT22;26917;52.328;20.878;2023-03-23T13:35:03;18.50;75.60
18252;DHT22;26917;52.328;20.878;2023-03-23T13:37:34;19.10;76.10
18252;DHT22;26917;52.328;20.878;2023-03-23T13:40:18;18.80;76.20
18252;DHT22;26917;52.328;20.878;2023-03-23T13:42:49;19.00;76.60
18252;DHT22;26917;52.328;20.878;2023-03-23T13:45:21;19.00;75.40
18252;DHT22;26917;52.328;20.878;2023-03-23T13:48:18;19.00;76.20
18252;DHT22;26917;52.328;20.878;2023-03-23T13:50:52;19.00;76.50
18252;DHT22;26917;52.328;20.878;2023-03-23T13:53:26;19.00;76.60
18252;DHT22;26917;52.328;20.878;2023-03-23T13:56:13;18.70;76.90
18252;DHT22;26917;52.328;20.878;2023-03-23T13:58:47;18.60;77.80
18252;DHT22;26917;52.328;20.878;2023-03-23T14:01:16;18.40;77.50
18252;DHT22;26917;52.328;20.878;2023-03-23T14:03:47;18.40;78.00
18252;DHT22;26917;52.328;20.878;2023-03-23T14:06:20;18.30;78.70
18252;DHT22;26917;52.328;20.878;2023-03-23T14:09:12;18.20;79.40
18252;DHT22;26917;52.328;20.878;2023-03-23T14:11:54;18.10;79.30
18252;DHT22;26917;52.328;20.878;2023-03-23T14:14:32;18.00;80.50
18252;DHT22;26917;52.328;20.878;2023-03-23T14:17:06;17.90;80.20
18252;DHT22;26917;52.328;20.878;2023-03-23T14:19:38;17.90;80.30
18252;DHT22;26917;52.328;20.878;2023-03-23T14:22:18;17.80;80.50
18252;DHT22;26917;52.328;20.878;2023-03-23T14:24:45;17.80;80.80
18252;DHT22;26917;52.328;20.878;2023-03-23T14:27:15;17.80;81.60
18252;DHT22;26917;52.328;20.878;2023-03-23T14:29:42;17.70;82.10
18252;DHT22;26917;52.328;20.878;2023-03-23T14:32:14;17.60;82.60
18252;DHT22;26917;52.328;20.878;2023-03-23T14:34:42;17.50;82.90
18252;DHT22;26917;52.328;20.878;2023-03-23T14:37:11;17.40;84.20
18252;DHT22;26917;52.328;20.878;2023-03-23T14:39:45;16.70;83.10
18252;DHT22;26917;52.328;20.878;2023-03-23T14:42:15;17.20;84.40
18252;DHT22;26917;52.328;20.878;2023-03-23T14:44:44;17.10;84.30
18252;DHT22;26917;52.328;20.878;2023-03-23T14:47:17;17.10;85.10
18252;DHT22;26917;52.328;20.878;2023-03-23T14:49:47;17.00;84.80
18252;DHT22;26917;52.328;20.878;2023-03-23T14:52:17;17.00;84.70
18252;DHT22;26917;52.328;20.878;2023-03-23T14:54:45;16.90;85.20
18252;DHT22;26917;52.328;20.878;2023-03-23T14:57:14;16.90;85.00
18252;DHT22;26917;52.328;20.878;2023-03-23T14:59:42;16.90;85.50
18252;DHT22;26917;52.328;20.878;2023-03-23T15:02:12;16.80;86.40
18252;DHT22;26917;52.328;20.878;2023-03-23T15:04:41;16.80;86.00
18252;DHT22;26917;52.328;20.878;2023-03-23T15:07:09;16.80;86.10
18252;DHT22;26917;52.328;20.878;2023-03-23T15:09:42;16.70;86.20
18252;DHT22;26917;52.328;20.878;2023-03-23T15:12:20;16.70;86.30
18252;DHT22;26917;52.328;20.878;2023-03-23T15:14:53;16.70;85.00
18252;DHT22;26917;52.328;20.878;2023-03-23T15:17:23;16.70;84.60
18252;DHT22;26917;52.328;20.878;2023-03-23T15:19:55;16.60;84.80
18252;DHT22;26917;52.328;20.878;2023-03-23T15:22:25;16.60;85.00
18252;DHT22;26917;52.328;20.878;2023-03-23T15:25:03;16.50;84.70
18252;DHT22;26917;52.328;20.878;2023-03-23T15:27:41;16.50;85.00
18252;DHT22;26917;52.328;20.878;2023-03-23T15:30:15;16.50;85.90
18252;DHT22;26917;52.328;20.878;2023-03-23T15:32:45;16.50;86.20
18252;DHT22;26917;52.328;20.878;2023-03-23T15:35:14;16.40;86.00
18252;DHT22;26917;52.328;20.878;2023-03-23T15:37:48;16.30;85.70
18252;DHT22;26917;52.328;20.878;2023-03-23T15:40:17;16.40;86.20
18252;DHT22;26917;52.328;20.878;2023-03-23T15:42:47;16.30;86.30
18252;DHT22;26917;52.328;20.878;2023-03-23T15:45:26;16.00;86.20
18252;DHT22;26917;52.328;20.878;2023-03-23T15:47:53;16.20;86.80
18252;DHT22;26917;52.328;20.878;2023-03-23T15:50:33;16.20;86.80
18252;DHT22;26917;52.328;20.878;2023-03-23T15:53:23;16.20;86.90
18252;DHT22;26917;52.328;20.878;2023-03-23T15:55:57;16.20;87.90
18252;DHT22;26917;52.328;20.878;2023-03-23T15:58:37;16.10;87.80
18252;DHT22;26917;52.328;20.878;2023-03-23T16:01:10;16.10;88.70
18252;DHT22;26917;52.328;20.878;2023-03-23T16:03:46;16.00;88.30
18252;DHT22;26917;52.328;20.878;2023-03-23T16:06:17;15.90;88.60
18252;DHT22;26917;52.328;20.878;2023-03-23T16:08:52;15.90;88.70
18252;DHT22;26917;52.328;20.878;2023-03-23T16:11:23;15.90;89.00
18252;DHT22;26917;52.328;20.878;2023-03-23T16:13:53;15.90;89.50
18252;DHT22;26917;52.328;20.878;2023-03-23T16:16:25;15.80;89.70